Terminal Aerodrome Forecast
Issued by NWS

Current Version | Previous Version | Text Only | Print | Product List | Glossary Off
Versions: 1 2 3 4 5 6 7 8 9 10 11 12 13 14 15 16 17 18 19 20 21 22 23 24

000
FTUS41 KRNK 250530
TAFLWB
TAF
KLWB 250530Z 2506/2606 VRB03KT P6SM SKC
     FM251400 20005KT P6SM FEW050
     FM251700 21007KT P6SM SCT060 SCT250
     FM260000 20003KT P6SM SCT070 BKN250=

USA.gov is the U.S. government's official web portal to all federal, state and local government web resources and services.